createdAt,value
2022-11-01T00:01:30.721Z,100153.69
2022-11-01T00:05:34.140Z,100144.91
2022-11-01T00:09:38.833Z,100133.44
2022-11-01T00:13:41.927Z,100138.75
2022-11-01T00:17:44.989Z,100134.31
2022-11-01T00:21:49.110Z,100138.75
2022-11-01T00:25:54.240Z,100142.25
2022-11-01T00:29:57.274Z,100136.09
2022-11-01T00:34:03.795Z,100127.28
2022-11-01T00:38:07.073Z,100130.75
2022-11-01T00:42:13.225Z,100127.25
2022-11-01T00:46:16.902Z,100128.16
2022-11-01T00:50:20.601Z,100125.50
2022-11-01T00:54:24.151Z,100125.50
2022-11-01T00:58:28.827Z,100114.06
2022-11-01T01:02:32.105Z,100125.50
2022-11-01T01:06:35.204Z,100115.81
2022-11-01T01:10:38.484Z,100120.25
2022-11-01T01:14:43.729Z,100121.09
2022-11-01T01:18:47.299Z,100115.81
2022-11-01T01:22:50.490Z,100121.09
2022-11-01T01:26:53.648Z,100114.06
2022-11-01T01:30:58.254Z,100118.47
2022-11-01T01:35:02.268Z,100108.78
2022-11-01T01:39:05.584Z,100110.56
2022-11-01T01:43:12.565Z,100101.75
2022-11-01T01:47:23.001Z,100096.47
2022-11-01T01:51:30.072Z,100091.22
2022-11-01T01:55:39.392Z,100092.97
2022-11-01T01:59:42.458Z,100085.94
2022-11-01T02:03:48.794Z,100092.94
2022-11-01T02:07:52.627Z,100085.03
2022-11-01T02:11:55.988Z,100082.41
2022-11-01T02:16:21.273Z,100081.50
2022-11-01T02:20:43.920Z,100080.66
2022-11-01T02:25:11.377Z,100083.31
2022-11-01T02:29:29.311Z,100072.72
2022-11-01T02:33:39.423Z,100073.63
2022-11-01T02:37:51.768Z,100076.25
2022-11-01T02:42:02.747Z,100074.47
2022-11-01T02:46:21.246Z,100077.13
2022-11-01T02:50:27.016Z,100075.38
2022-11-01T02:54:34.752Z,100080.66
2022-11-01T02:58:38.541Z,100073.63
2022-11-01T03:02:44.466Z,100070.09
2022-11-01T03:06:54.016Z,100068.31
2022-11-01T03:11:08.096Z,100079.78
2022-11-01T03:15:21.083Z,100070.09
2022-11-01T03:19:39.182Z,100068.34
2022-11-01T03:23:51.091Z,100065.69
2022-11-01T03:27:55.836Z,100063.94
2022-11-01T03:32:01.061Z,100064.81
2022-11-01T03:36:13.469Z,100068.34
2022-11-01T03:40:20.134Z,100069.22
2022-11-01T03:44:23.602Z,100069.22
2022-11-01T03:48:26.713Z,100067.44
2022-11-01T03:52:29.715Z,100070.09
2022-11-01T03:56:34.460Z,100081.53
2022-11-01T04:00:39.955Z,100079.75
2022-11-01T04:04:43.291Z,100093.00
2022-11-01T04:08:46.380Z,100078.88
2022-11-01T04:12:51.589Z,100069.19
2022-11-01T04:17:20.474Z,100078.03
2022-11-01T04:21:26.583Z,100066.56
2022-11-01T04:25:30.251Z,100071.84
2022-11-01T04:29:34.833Z,100071.84
2022-11-01T04:33:38.171Z,100063.91
2022-11-01T04:37:41.226Z,100063.91
2022-11-01T04:41:44.332Z,100070.09
2022-11-01T04:45:55.097Z,100066.56
2022-11-01T04:49:58.110Z,100072.72
2022-11-01T04:54:01.109Z,100069.22
2022-11-01T04:58:06.659Z,100068.34
2022-11-01T05:02:11.213Z,100063.06
2022-11-01T05:06:14.237Z,100058.63
2022-11-01T05:10:17.400Z,100060.41
2022-11-01T05:14:20.442Z,100061.28
2022-11-01T05:18:24.924Z,100052.47
2022-11-01T05:22:28.047Z,100064.78
2022-11-01T05:26:31.097Z,100062.16
2022-11-01T05:30:34.219Z,100066.53
2022-11-01T05:34:38.709Z,100062.16
2022-11-01T05:38:41.744Z,100075.38
2022-11-01T05:42:44.983Z,100069.19
2022-11-01T05:46:48.176Z,100078.00
2022-11-01T05:50:52.705Z,100082.41
2022-11-01T05:54:55.699Z,100089.44
2022-11-01T05:58:58.738Z,100085.94
2022-11-01T06:03:02.343Z,100085.94
2022-11-01T06:07:07.007Z,100089.44
2022-11-01T06:11:11.441Z,100091.22
2022-11-01T06:15:14.549Z,100085.94
2022-11-01T06:19:17.650Z,100093.84
2022-11-01T06:23:22.082Z,100094.72
2022-11-01T06:27:25.173Z,100105.28
2022-11-01T06:31:28.201Z,100114.09
2022-11-01T06:35:31.290Z,100115.00
2022-11-01T06:39:36.721Z,100106.16
2022-11-01T06:43:40.315Z,100114.09
2022-11-01T06:47:48.211Z,100121.16
2022-11-01T06:51:51.290Z,100122.03
2022-11-01T06:55:55.685Z,100121.16
2022-11-01T06:59:58.731Z,100129.06
2022-11-01T07:04:01.883Z,100130.81
2022-11-01T07:08:07.010Z,100134.34
2022-11-01T07:12:11.426Z,100143.16
2022-11-01T07:16:14.822Z,100144.91
2022-11-01T07:20:17.821Z,100147.56
2022-11-01T07:24:21.084Z,100144.03
2022-11-01T07:28:26.161Z,100139.63
2022-11-01T07:32:29.170Z,100143.16
2022-11-01T07:36:32.237Z,100149.31
2022-11-01T07:40:35.219Z,100144.91
2022-11-01T07:44:39.639Z,100143.16
2022-11-01T07:48:42.744Z,100149.34
2022-11-01T07:52:45.979Z,100156.34
2022-11-01T07:56:49.339Z,100144.03
2022-11-01T08:00:53.903Z,100147.56
2022-11-01T08:04:57.096Z,100138.72
2022-11-01T08:09:00.075Z,100144.91
2022-11-01T08:13:04.784Z,100141.41
2022-11-01T08:17:09.911Z,100147.56
2022-11-01T08:21:18.690Z,100160.78
2022-11-01T08:25:22.337Z,100159.91
2022-11-01T08:29:25.331Z,100166.94
2022-11-01T08:33:29.768Z,100174.00
2022-11-01T08:37:32.885Z,100166.97
2022-11-01T08:41:37.425Z,100173.13
2022-11-01T08:45:40.843Z,100172.22
2022-11-01T08:49:45.791Z,100182.81
2022-11-01T08:53:48.792Z,100181.03
2022-11-01T08:57:52.357Z,100189.88
2022-11-01T09:01:55.618Z,100184.59
2022-11-01T09:06:00.269Z,100191.63
2022-11-01T09:10:03.496Z,100188.97
2022-11-01T09:14:06.524Z,100188.97
2022-11-01T09:18:09.764Z,100188.97
2022-11-01T09:22:14.566Z,100202.19
2022-11-01T09:26:17.721Z,100208.34
2022-11-01T09:30:21.499Z,100214.56
2022-11-01T09:34:24.505Z,100218.06
2022-11-01T09:38:29.105Z,100224.22
2022-11-01T09:42:36.008Z,100232.13
2022-11-01T09:46:45.312Z,100229.47
2022-11-01T09:50:48.630Z,100230.31
2022-11-01T09:54:53.329Z,100227.69
2022-11-01T09:59:04.561Z,100215.34
2022-11-01T10:03:28.816Z,100216.22
2022-11-01T10:07:43.082Z,100219.75
2022-11-01T10:12:04.761Z,100223.28
2022-11-01T10:16:16.201Z,100228.59
2022-11-01T10:20:21.592Z,100230.31
2022-11-01T10:24:31.138Z,100233.88
2022-11-01T10:28:45.953Z,100234.75
2022-11-01T10:32:52.950Z,100232.97
2022-11-01T10:37:02.559Z,100220.63
2022-11-01T10:41:18.528Z,100224.13
2022-11-01T10:45:23.706Z,100217.97
2022-11-01T10:50:00.163Z,100221.47
2022-11-01T10:53:59.989Z,100219.69
2022-11-01T10:58:07.954Z,100218.78
2022-11-01T11:02:19.395Z,100225.00
2022-11-01T11:06:22.769Z,100222.34
2022-11-01T11:10:28.014Z,100217.06
2022-11-01T11:14:33.889Z,100221.47
2022-11-01T11:18:42.380Z,100213.50
2022-11-01T11:22:45.382Z,100223.22
2022-11-01T11:26:54.249Z,100230.25
2022-11-01T11:30:59.083Z,100227.59
2022-11-01T11:35:08.845Z,100231.13
2022-11-01T11:39:25.229Z,100228.47
2022-11-01T11:43:34.266Z,100225.81
2022-11-01T11:47:38.633Z,100236.34
2022-11-01T11:51:43.129Z,100219.53
2022-11-01T11:55:49.298Z,100221.31
2022-11-01T11:59:55.439Z,100217.75
2022-11-01T12:04:00.754Z,100230.13
2022-11-01T12:08:06.227Z,100230.13
2022-11-01T12:12:17.220Z,100226.63
2022-11-01T12:16:24.463Z,100219.53
2022-11-01T12:20:36.623Z,100219.53
2022-11-01T12:24:45.235Z,100224.81
2022-11-01T12:28:54.710Z,100231.88
2022-11-01T12:33:00.051Z,100225.72
2022-11-01T12:37:08.194Z,100223.94
2022-11-01T12:41:28.876Z,100228.34
2022-11-01T12:45:37.742Z,100226.59
2022-11-01T12:49:48.446Z,100218.63
2022-11-01T12:53:56.276Z,100214.19
2022-11-01T12:58:01.013Z,100220.34
2022-11-01T13:02:20.842Z,100220.34
2022-11-01T13:06:51.114Z,100221.22
2022-11-01T13:10:54.403Z,100215.06
2022-11-01T13:15:08.092Z,100207.97
2022-11-01T13:19:19.336Z,100206.22
2022-11-01T13:23:28.579Z,100201.81
2022-11-01T13:27:41.348Z,100207.16
2022-11-01T13:32:02.072Z,100202.72
2022-11-01T13:36:11.968Z,100205.38
2022-11-01T13:40:23.301Z,100209.81
2022-11-01T13:44:29.754Z,100214.25
2022-11-01T13:48:48.166Z,100212.50
2022-11-01T13:52:56.909Z,100208.09
2022-11-01T13:57:10.065Z,100214.25
2022-11-01T14:01:32.836Z,100212.50
2022-11-01T14:05:40.681Z,100216.03
2022-11-01T14:09:46.016Z,100222.19
2022-11-01T14:13:49.445Z,100220.44
2022-11-01T14:18:10.258Z,100225.75
2022-11-01T14:22:29.210Z,100235.47
2022-11-01T14:26:51.006Z,100224.88
2022-11-01T14:30:54.917Z,100228.41
2022-11-01T14:35:03.072Z,100235.47
2022-11-01T14:39:16.390Z,100229.31
2022-11-01T14:43:24.209Z,100237.25
2022-11-01T14:47:35.591Z,100235.53
2022-11-01T14:51:45.951Z,100242.56
2022-11-01T14:55:51.029Z,100249.63
2022-11-01T14:59:54.440Z,100247.00
2022-11-01T15:03:58.713Z,100241.75
2022-11-01T15:08:02.230Z,100242.59
2022-11-01T15:12:10.618Z,100244.38
2022-11-01T15:16:17.065Z,100240.88
2022-11-01T15:20:22.285Z,100246.19
2022-11-01T15:24:27.144Z,100242.69
2022-11-01T15:28:37.167Z,100263.84
2022-11-01T15:32:40.148Z,100275.31
2022-11-01T15:36:43.329Z,100269.13
2022-11-01T15:40:46.936Z,100269.13
2022-11-01T15:44:51.613Z,100269.13
2022-11-01T15:48:57.777Z,100257.69
2022-11-01T15:53:04.406Z,100262.09
2022-11-01T15:57:15.868Z,100272.69
2022-11-01T16:01:23.649Z,100278.84
2022-11-01T16:05:31.141Z,100290.34
2022-11-01T16:09:39.666Z,100279.75
2022-11-01T16:13:50.320Z,100287.66
2022-11-01T16:17:57.439Z,100292.09
2022-11-01T16:22:03.522Z,100298.25
2022-11-01T16:26:08.247Z,100292.97
2022-11-01T16:30:36.646Z,100294.72
2022-11-01T16:34:41.178Z,100301.78
2022-11-01T16:38:45.649Z,100302.63
2022-11-01T16:42:49.700Z,100296.47
2022-11-01T16:46:54.743Z,100309.69
2022-11-01T16:51:00.717Z,100315.88
2022-11-01T16:55:03.765Z,100328.19
2022-11-01T16:59:08.736Z,100327.34
2022-11-01T17:03:13.771Z,100334.38
2022-11-01T17:07:18.674Z,100326.44
2022-11-01T17:11:22.551Z,100333.50
2022-11-01T17:15:27.284Z,100332.56
2022-11-01T17:19:33.352Z,100339.63
2022-11-01T17:23:38.468Z,100342.25
2022-11-01T17:27:41.503Z,100337.81
2022-11-01T17:31:44.879Z,100338.72
2022-11-01T17:35:48.397Z,100342.22
2022-11-01T17:39:52.980Z,100348.38
2022-11-01T17:43:56.122Z,100358.94
2022-11-01T17:47:59.253Z,100358.91
2022-11-01T17:52:04.360Z,100365.97
2022-11-01T17:56:09.396Z,100369.50
2022-11-01T18:00:13.458Z,100358.91
2022-11-01T18:04:17.687Z,100351.84
2022-11-01T18:08:26.173Z,100355.38
2022-11-01T18:12:39.064Z,100360.66
2022-11-01T18:16:48.477Z,100353.59
2022-11-01T18:21:03.845Z,100357.13
2022-11-01T18:25:21.968Z,100343.91
2022-11-01T18:29:26.457Z,100336.00
2022-11-01T18:33:35.668Z,100341.25
2022-11-01T18:37:45.842Z,100345.66
2022-11-01T18:41:50.541Z,100342.16
2022-11-01T18:46:23.452Z,100348.31
2022-11-01T18:50:23.560Z,100335.97
2022-11-01T18:54:30.504Z,100335.09
2022-11-01T18:58:35.822Z,100333.34
2022-11-01T19:02:41.114Z,100334.25
2022-11-01T19:06:44.627Z,100340.41
2022-11-01T19:10:47.628Z,100350.97
2022-11-01T19:14:55.569Z,100343.03
2022-11-01T19:19:01.025Z,100342.13
2022-11-01T19:23:10.468Z,100344.75
2022-11-01T19:27:17.419Z,100345.66
2022-11-01T19:31:30.535Z,100346.50
2022-11-01T19:35:35.009Z,100350.91
2022-11-01T19:39:41.678Z,100346.50
2022-11-01T19:43:45.459Z,100343.88
2022-11-01T19:47:51.136Z,100345.63
2022-11-01T19:52:18.948Z,100341.22
2022-11-01T19:56:23.913Z,100349.16
2022-11-01T20:00:29.431Z,100357.94
2022-11-01T20:04:32.993Z,100355.25
2022-11-01T20:08:37.618Z,100364.06
2022-11-01T20:12:44.611Z,100371.97
2022-11-01T20:16:48.397Z,100371.97
2022-11-01T20:20:52.937Z,100381.69
2022-11-01T20:24:57.458Z,100385.19
2022-11-01T20:29:00.608Z,100388.69
2022-11-01T20:33:03.992Z,100398.38
2022-11-01T20:37:27.538Z,100402.78
2022-11-01T20:41:32.780Z,100398.34
2022-11-01T20:45:35.951Z,100394.84
2022-11-01T20:49:38.945Z,100395.72
2022-11-01T20:53:42.602Z,100400.13
2022-11-01T20:57:47.270Z,100404.53
2022-11-01T21:01:50.583Z,100399.25
2022-11-01T21:05:53.936Z,100404.50
2022-11-01T21:09:57.165Z,100415.94
2022-11-01T21:14:01.918Z,100418.59
2022-11-01T21:18:39.733Z,100408.00
2022-11-01T21:22:42.757Z,100404.50
2022-11-01T21:26:45.936Z,100393.94
2022-11-01T21:30:50.514Z,100390.44
2022-11-01T21:34:54.941Z,100390.44
2022-11-01T21:38:59.780Z,100392.19
2022-11-01T21:43:03.661Z,100391.34
2022-11-01T21:47:19.313Z,100391.31
2022-11-01T21:51:22.454Z,100393.97
2022-11-01T21:55:25.485Z,100387.81
2022-11-01T21:59:28.955Z,100384.31
2022-11-01T22:03:33.326Z,100388.69
2022-11-01T22:07:36.839Z,100392.22
2022-11-01T22:11:39.908Z,100385.19
2022-11-01T22:15:42.943Z,100386.06
2022-11-01T22:19:47.302Z,100383.41
2022-11-01T22:23:50.514Z,100384.31
2022-11-01T22:27:53.505Z,100378.13
2022-11-01T22:31:56.525Z,100374.63
2022-11-01T22:36:01.115Z,100371.13
2022-11-01T22:40:11.959Z,100372.84
2022-11-01T22:44:17.774Z,100379.91
2022-11-01T22:48:24.594Z,100374.63
2022-11-01T22:52:36.383Z,100371.97
2022-11-01T22:56:39.545Z,100371.97
2022-11-01T23:00:42.497Z,100364.94
2022-11-01T23:04:45.500Z,100362.31
2022-11-01T23:08:49.943Z,100363.19
2022-11-01T23:13:14.882Z,100368.50
2022-11-01T23:17:23.041Z,100380.81
2022-11-01T23:21:27.886Z,100378.13
2022-11-01T23:25:33.805Z,100365.81
2022-11-01T23:29:37.000Z,100365.84
2022-11-01T23:33:42.265Z,100365.84
2022-11-01T23:37:45.453Z,100363.19
2022-11-01T23:41:51.897Z,100363.19
2022-11-01T23:45:55.293Z,100351.72
2022-11-01T23:50:03.896Z,100360.56
2022-11-01T23:54:07.442Z,100378.13
2022-11-01T23:58:16.427Z,100364.94
